Time;durP1;ratioP1;P1;durP2;ratioP2;P2;SDS_P1;SDS_P2;PMS_P1;PMS_P2;Temp;Humidity;BMP_temperature;BMP_pressure;BME280_temperature;BME280_humidity;BME280_pressure;Samples;Min_cycle;Max_cycle;Signal;HPM_P1;HPM_P2
2023/09/21 00:00:34;;;;;;;2.70;1.52;;;21.20;67.90;;;;;;5053345;28;20179;-62
2023/09/21 00:02:59;;;;;;;1.50;1.40;;;21.20;67.90;;;;;;5053124;28;20626;-63
2023/09/21 00:05:30;;;;;;;1.30;1.20;;;21.20;67.90;;;;;;5052813;28;20237;-63
2023/09/21 00:07:57;;;;;;;1.30;1.10;;;21.30;68.00;;;;;;5053427;28;20570;-63
2023/09/21 00:10:23;;;;;;;1.48;1.38;;;21.30;68.00;;;;;;5053322;28;20179;-62
2023/09/21 00:12:49;;;;;;;2.53;1.30;;;21.20;68.70;;;;;;5052658;28;20209;-63
2023/09/21 00:15:17;;;;;;;3.45;1.20;;;21.20;67.90;;;;;;5052830;28;20175;-66
2023/09/21 00:17:43;;;;;;;1.40;1.30;;;21.20;68.00;;;;;;5053440;28;20270;-64
2023/09/21 00:20:16;;;;;;;2.05;1.10;;;21.20;67.90;;;;;;5052154;28;20262;-64
2023/09/21 00:22:42;;;;;;;2.15;1.33;;;21.20;67.80;;;;;;5053116;28;20187;-64
2023/09/21 00:25:08;;;;;;;1.58;1.48;;;21.20;67.80;;;;;;5052837;28;20213;-63
2023/09/21 00:27:33;;;;;;;1.70;1.33;;;21.20;67.80;;;;;;5052064;28;20688;-64
2023/09/21 00:30:01;;;;;;;1.92;1.40;;;21.20;67.80;;;;;;5052580;28;20175;-63
2023/09/21 00:32:27;;;;;;;1.38;1.27;;;21.20;68.00;;;;;;5052992;28;20179;-63
2023/09/21 00:34:53;;;;;;;1.30;1.20;;;21.20;67.80;;;;;;5051624;28;20178;-63
2023/09/21 00:37:19;;;;;;;1.95;1.30;;;21.20;67.80;;;;;;5052364;28;20234;-63
2023/09/21 00:39:47;;;;;;;1.30;1.20;;;21.20;67.80;;;;;;5052252;28;20270;-63
2023/09/21 00:42:12;;;;;;;1.95;1.38;;;21.20;67.80;;;;;;5052361;28;20633;-63
2023/09/21 00:44:38;;;;;;;1.25;1.13;;;21.20;67.80;;;;;;5052918;28;20183;-63
2023/09/21 00:47:03;;;;;;;1.25;1.15;;;21.20;67.80;;;;;;5051853;28;20640;-63
2023/09/21 00:49:29;;;;;;;1.20;1.10;;;21.20;68.10;;;;;;5052756;28;20638;-63
2023/09/21 00:51:55;;;;;;;1.15;1.10;;;21.20;67.80;;;;;;5035135;28;20171;-63
2023/09/21 00:54:21;;;;;;;1.50;1.40;;;21.20;67.90;;;;;;5051548;28;20186;-63
2023/09/21 00:56:48;;;;;;;1.70;1.25;;;21.20;67.90;;;;;;5034941;28;20175;-62
2023/09/21 00:59:15;;;;;;;1.30;1.20;;;21.20;67.90;;;;;;5034897;28;20179;-63
2023/09/21 01:01:40;;;;;;;1.20;1.10;;;21.20;67.90;;;;;;5034193;28;20660;-63
2023/09/21 01:04:06;;;;;;;1.40;1.30;;;21.20;67.80;;;;;;5052178;28;20179;-63
2023/09/21 01:06:32;;;;;;;1.33;1.15;;;21.20;67.80;;;;;;5052276;28;20228;-63
2023/09/21 01:08:58;;;;;;;1.33;1.23;;;21.20;67.90;;;;;;5051474;28;20241;-63
2023/09/21 01:11:24;;;;;;;1.30;1.20;;;21.20;67.90;;;;;;5052302;28;20190;-64
2023/09/21 01:13:51;;;;;;;1.30;1.20;;;21.20;67.80;;;;;;5034967;28;20252;-63
2023/09/21 01:16:17;;;;;;;1.38;1.27;;;21.20;67.80;;;;;;5051392;28;20573;-63
2023/09/21 01:18:42;;;;;;;1.58;1.48;;;21.20;67.80;;;;;;5052387;28;20653;-63
2023/09/21 01:21:09;;;;;;;1.20;1.10;;;21.20;67.80;;;;;;5052091;28;20224;-63
2023/09/21 01:23:49;;;;;;;1.40;1.30;;;21.20;67.90;;;;;;5051567;28;20526;-63
2023/09/21 01:26:18;;;;;;;2.35;1.27;;;21.20;67.80;;;;;;5051793;28;20198;-63
2023/09/21 01:28:46;;;;;;;1.20;1.10;;;21.20;67.80;;;;;;5052091;28;20226;-64
2023/09/21 01:31:13;;;;;;;1.50;1.40;;;21.20;67.80;;;;;;5050798;28;20194;-63
2023/09/21 01:33:39;;;;;;;1.50;1.13;;;21.20;67.90;;;;;;5052191;28;20740;-63
2023/09/21 01:36:08;;;;;;;1.55;1.30;;;21.10;67.80;;;;;;5051366;28;20180;-63
2023/09/21 01:38:34;;;;;;;2.03;1.20;;;21.20;67.80;;;;;;5051867;28;20223;-63
2023/09/21 01:41:00;;;;;;;1.35;1.25;;;21.20;67.80;;;;;;5052017;28;20179;-63
2023/09/21 01:43:25;;;;;;;1.75;1.13;;;21.20;67.90;;;;;;5051363;28;20229;-63
2023/09/21 01:45:51;;;;;;;1.33;1.17;;;21.10;67.70;;;;;;5054017;28;20179;-63
2023/09/21 01:48:20;;;;;;;1.52;1.25;;;21.10;67.70;;;;;;5055643;28;20207;-63
2023/09/21 01:50:50;;;;;;;2.00;1.10;;;21.10;67.70;;;;;;5055307;28;20538;-62
2023/09/21 01:53:20;;;;;;;1.20;1.10;;;21.10;67.70;;;;;;5055682;28;20272;-63
2023/09/21 01:55:47;;;;;;;1.30;1.20;;;21.10;67.70;;;;;;5056077;28;20175;-62
2023/09/21 01:58:13;;;;;;;1.60;1.50;;;21.10;67.70;;;;;;5054822;28;20175;-63
2023/09/21 02:00:39;;;;;;;1.23;1.13;;;21.10;67.70;;;;;;5055869;28;20503;-63
2023/09/21 02:03:12;;;;;;;1.38;1.30;;;21.10;67.70;;;;;;5055478;28;20205;-63
2023/09/21 02:05:41;;;;;;;1.38;1.30;;;21.10;67.70;;;;;;5054821;28;20622;-63
2023/09/21 02:08:07;;;;;;;1.42;1.20;;;21.10;67.70;;;;;;5055554;28;20272;-63
2023/09/21 02:10:37;;;;;;;1.25;1.13;;;21.10;67.70;;;;;;5055576;28;20167;-63
2023/09/21 02:13:06;;;;;;;1.17;1.08;;;21.10;67.70;;;;;;5054659;28;20194;-63
2023/09/21 02:15:34;;;;;;;1.83;1.40;;;21.10;67.80;;;;;;5055614;28;20175;-63
2023/09/21 02:18:00;;;;;;;1.42;1.30;;;21.10;67.70;;;;;;5055181;28;20197;-64
2023/09/21 02:20:28;;;;;;;1.48;1.35;;;21.10;67.70;;;;;;5054565;28;20238;-66
2023/09/21 02:22:58;;;;;;;1.70;1.23;;;21.10;67.90;;;;;;5055665;28;20175;-63
2023/09/21 02:25:25;;;;;;;1.70;1.38;;;21.10;67.70;;;;;;5054855;28;20171;-63
2023/09/21 02:27:51;;;;;;;1.13;1.00;;;21.10;67.70;;;;;;5055155;28;20215;-63
2023/09/21 02:30:23;;;;;;;1.48;1.10;;;21.10;67.70;;;;;;5054830;28;20181;-63
2023/09/21 02:32:53;;;;;;;1.30;1.20;;;21.10;67.80;;;;;;5054430;28;20183;-63
2023/09/21 02:35:27;;;;;;;1.45;1.08;;;21.10;67.80;;;;;;5054708;28;20190;-63
2023/09/21 02:37:54;;;;;;;1.48;1.20;;;21.10;67.70;;;;;;5054921;28;20240;-63
2023/09/21 02:40:20;;;;;;;1.92;1.48;;;21.10;67.70;;;;;;5054055;28;20301;-62
2023/09/21 02:42:48;;;;;;;1.67;1.00;;;21.10;67.80;;;;;;5055265;28;20206;-63
2023/09/21 02:45:14;;;;;;;1.77;1.27;;;21.10;67.90;;;;;;5054747;28;20563;-63
2023/09/21 02:47:41;;;;;;;1.20;1.10;;;21.10;67.80;;;;;;5054291;28;20301;-63
2023/09/21 02:50:21;;;;;;;1.45;1.33;;;21.10;67.80;;;;;;5054751;28;20179;-63
2023/09/21 02:52:54;;;;;;;1.33;1.00;;;21.10;67.80;;;;;;5055014;28;20540;-63
2023/09/21 02:55:20;;;;;;;1.90;1.10;;;21.10;67.80;;;;;;5053589;28;20660;-63
2023/09/21 02:57:48;;;;;;;1.20;1.10;;;21.10;67.80;;;;;;5053841;28;20556;-62
2023/09/21 03:00:21;;;;;;;2.22;1.52;;;21.10;67.80;;;;;;5054575;28;20174;-63
2023/09/21 03:02:49;;;;;;;1.30;1.20;;;21.10;67.80;;;;;;5054792;28;20258;-63
2023/09/21 03:05:18;;;;;;;1.58;1.23;;;21.00;67.70;;;;;;5054421;28;20175;-63
2023/09/21 03:07:44;;;;;;;1.20;1.10;;;21.10;67.80;;;;;;5053786;28;20206;-63
2023/09/21 03:10:11;;;;;;;1.23;1.10;;;21.10;67.80;;;;;;5054172;28;20236;-63
2023/09/21 03:12:37;;;;;;;1.20;1.10;;;21.10;67.80;;;;;;5054465;28;20182;-62
2023/09/21 03:15:13;;;;;;;1.98;1.13;;;21.10;67.80;;;;;;5053501;28;20175;-63
2023/09/21 03:17:39;;;;;;;1.90;1.00;;;21.10;68.00;;;;;;5054290;28;20167;-63
2023/09/21 03:20:09;;;;;;;2.30;1.20;;;21.10;68.00;;;;;;5054084;28;20183;-63
2023/09/21 03:22:35;;;;;;;1.50;1.20;;;21.10;67.80;;;;;;5053498;28;20179;-63
2023/09/21 03:25:02;;;;;;;1.58;1.40;;;21.10;67.90;;;;;;5053708;28;20634;-63
2023/09/21 03:27:27;;;;;;;1.85;1.30;;;21.10;67.80;;;;;;5054132;28;20259;-64
2023/09/21 03:29:54;;;;;;;0.80;0.80;;;21.10;67.90;;;;;;5053498;28;20577;-63
2023/09/21 03:32:19;;;;;;;2.00;1.55;;;21.10;67.80;;;;;;5053712;28;20179;-63
2023/09/21 03:34:45;;;;;;;1.63;1.30;;;21.00;67.70;;;;;;5054012;28;20649;-62
2023/09/21 03:37:11;;;;;;;1.38;1.25;;;21.10;67.80;;;;;;5052748;28;20717;-63
2023/09/21 03:39:37;;;;;;;1.98;1.33;;;21.10;67.80;;;;;;5053714;28;20171;-63
2023/09/21 03:42:04;;;;;;;1.30;1.00;;;21.00;67.80;;;;;;5053688;28;20199;-63
2023/09/21 03:44:30;;;;;;;1.00;0.98;;;21.10;67.90;;;;;;5052940;28;20175;-63
2023/09/21 03:46:55;;;;;;;1.35;1.20;;;21.00;68.60;;;;;;5053846;28;20186;-63
2023/09/21 03:49:21;;;;;;;1.25;1.15;;;21.10;67.90;;;;;;5053353;28;20207;-63
2023/09/21 03:51:47;;;;;;;1.38;1.27;;;21.00;67.90;;;;;;5052885;28;20177;-63
2023/09/21 03:54:15;;;;;;;1.15;0.93;;;21.00;67.80;;;;;;5053496;28;20254;-63
2023/09/21 03:56:41;;;;;;;1.88;1.30;;;21.10;67.90;;;;;;5052804;28;20178;-62
2023/09/21 03:59:07;;;;;;;1.33;1.23;;;21.10;67.80;;;;;;5053295;28;20183;-63
2023/09/21 04:01:36;;;;;;;1.20;1.10;;;21.10;67.80;;;;;;5053468;28;20717;-63
2023/09/21 04:04:08;;;;;;;1.15;1.05;;;21.00;68.70;;;;;;5052548;28;20679;-63
2023/09/21 04:06:33;;;;;;;1.85;1.33;;;21.10;67.80;;;;;;5053329;28;20198;-63
2023/09/21 04:08:59;;;;;;;1.50;1.10;;;21.10;67.80;;;;;;5053186;28;20665;-63
2023/09/21 04:11:28;;;;;;;1.63;1.33;;;21.10;67.80;;;;;;5052550;28;20698;-63
2023/09/21 04:13:53;;;;;;;1.00;0.93;;;21.10;67.90;;;;;;5053202;28;20179;-63
2023/09/21 04:16:19;;;;;;;1.50;1.30;;;21.00;67.90;;;;;;5052960;28;20637;-63
2023/09/21 04:18:44;;;;;;;1.00;0.98;;;21.10;67.70;;;;;;5052539;28;20692;-64
2023/09/21 04:21:10;;;;;;;1.52;1.30;;;21.10;67.80;;;;;;5052927;28;20176;-64
2023/09/21 04:23:35;;;;;;;1.42;1.17;;;21.00;67.70;;;;;;5053246;28;20175;-68
2023/09/21 04:26:01;;;;;;;1.17;1.08;;;21.00;67.80;;;;;;5051973;28;20167;-63
2023/09/21 04:28:26;;;;;;;1.10;1.00;;;21.10;67.80;;;;;;5052744;28;20345;-63
2023/09/21 04:30:52;;;;;;;1.65;1.45;;;21.00;67.70;;;;;;5052956;28;20202;-62
2023/09/21 04:33:17;;;;;;;1.20;1.13;;;21.00;67.80;;;;;;5051752;28;20179;-64
2023/09/21 04:35:43;;;;;;;1.85;1.58;;;21.00;68.60;;;;;;5052745;28;20171;-64
2023/09/21 04:38:09;;;;;;;1.33;1.10;;;21.10;67.80;;;;;;5052425;28;20233;-63
2023/09/21 04:40:34;;;;;;;1.30;1.20;;;21.10;67.80;;;;;;5052137;28;20179;-64
2023/09/21 04:43:00;;;;;;;1.52;1.42;;;21.00;67.70;;;;;;5052580;28;20171;-64
2023/09/21 04:45:28;;;;;;;1.20;1.10;;;21.00;67.80;;;;;;5052665;28;20173;-63
2023/09/21 04:48:00;;;;;;;1.27;1.10;;;21.00;67.70;;;;;;5051994;28;20257;-63
2023/09/21 04:50:26;;;;;;;1.15;1.05;;;21.10;67.70;;;;;;5052446;28;20228;-62
2023/09/21 04:52:51;;;;;;;1.42;1.10;;;21.00;67.80;;;;;;5052183;28;20171;-62
2023/09/21 04:55:17;;;;;;;1.23;1.10;;;21.00;67.70;;;;;;5051974;28;20225;-62
2023/09/21 04:57:43;;;;;;;1.27;1.08;;;21.10;67.70;;;;;;5052716;28;20187;-62
2023/09/21 05:00:13;;;;;;;1.50;1.40;;;21.00;67.70;;;;;;5051650;28;20232;-62
2023/09/21 05:02:39;;;;;;;1.10;1.00;;;21.00;67.70;;;;;;5035281;28;20183;-62
2023/09/21 05:05:05;;;;;;;1.15;1.00;;;21.00;67.70;;;;;;5052199;28;20580;-65
2023/09/21 05:07:31;;;;;;;1.20;1.10;;;21.00;67.70;;;;;;5051674;28;20203;-64
2023/09/21 05:09:56;;;;;;;2.35;1.00;;;21.10;67.90;;;;;;5052554;28;20178;-64
2023/09/21 05:12:22;;;;;;;1.63;1.10;;;21.00;67.80;;;;;;5052163;28;20212;-64
2023/09/21 05:14:48;;;;;;;1.13;1.02;;;21.00;67.70;;;;;;5051539;28;20216;-64
2023/09/21 05:17:14;;;;;;;1.15;1.05;;;21.00;67.80;;;;;;5051942;28;20175;-64
2023/09/21 05:19:40;;;;;;;1.02;0.98;;;21.10;67.80;;;;;;5052188;28;20715;-63
2023/09/21 05:22:09;;;;;;;2.47;1.20;;;21.00;67.70;;;;;;5055617;28;20254;-65
2023/09/21 05:24:36;;;;;;;1.20;1.10;;;21.00;67.70;;;;;;5056351;28;20186;-64
2023/09/21 05:27:01;;;;;;;2.35;1.30;;;21.10;67.70;;;;;;5055907;28;20179;-64
2023/09/21 05:29:27;;;;;;;1.30;1.20;;;21.10;67.70;;;;;;5055579;28;20179;-64
2023/09/21 05:31:53;;;;;;;1.98;1.30;;;21.10;67.70;;;;;;5056272;28;20233;-62
2023/09/21 05:34:19;;;;;;;1.48;1.20;;;21.00;67.70;;;;;;5055814;28;20179;-63
2023/09/21 05:36:46;;;;;;;1.52;1.10;;;21.10;67.70;;;;;;5055623;28;20229;-63
2023/09/21 05:39:14;;;;;;;1.30;1.20;;;21.00;67.60;;;;;;5056103;28;20171;-63
2023/09/21 05:41:41;;;;;;;1.50;1.38;;;21.10;67.70;;;;;;5056226;28;20209;-63
2023/09/21 05:44:06;;;;;;;1.30;1.20;;;21.10;67.70;;;;;;5055100;28;20183;-63
2023/09/21 05:46:32;;;;;;;1.00;1.00;;;21.10;67.60;;;;;;5055872;28;20619;-63
2023/09/21 05:48:59;;;;;;;1.08;1.02;;;21.10;68.50;;;;;;5055790;28;20662;-63
2023/09/21 05:51:25;;;;;;;1.35;1.00;;;21.10;67.60;;;;;;5055209;28;20175;-63
2023/09/21 05:53:52;;;;;;;1.20;1.10;;;21.10;67.60;;;;;;5056033;28;20176;-63
2023/09/21 05:56:19;;;;;;;1.73;1.20;;;21.00;67.50;;;;;;5054878;28;20179;-63
2023/09/21 05:58:46;;;;;;;1.10;1.10;;;21.00;67.60;;;;;;5055776;28;20558;-62
2023/09/21 06:01:12;;;;;;;1.50;1.00;;;21.10;67.60;;;;;;5055492;28;20192;-63
2023/09/21 06:03:37;;;;;;;1.10;1.00;;;21.10;67.60;;;;;;5055129;28;20586;-63
2023/09/21 06:06:07;;;;;;;1.33;1.10;;;21.10;67.70;;;;;;5055252;28;20254;-63
2023/09/21 06:08:32;;;;;;;1.40;1.05;;;21.10;67.60;;;;;;5055401;28;20757;-63
2023/09/21 06:10:58;;;;;;;1.52;1.17;;;21.10;67.60;;;;;;5054571;28;20290;-63
2023/09/21 06:13:25;;;;;;;1.20;1.10;;;21.10;67.60;;;;;;5055376;28;20633;-63
2023/09/21 06:15:50;;;;;;;1.45;1.20;;;21.00;67.60;;;;;;5055489;28;20178;-64
2023/09/21 06:18:17;;;;;;;1.20;1.00;;;21.00;67.50;;;;;;5054515;28;20175;-63
2023/09/21 06:20:43;;;;;;;1.48;1.38;;;21.10;67.60;;;;;;5055328;28;20266;-64
2023/09/21 06:23:08;;;;;;;1.42;1.33;;;21.00;67.50;;;;;;5055067;28;20206;-63
2023/09/21 06:25:35;;;;;;;1.50;1.17;;;21.00;67.50;;;;;;5054680;28;20175;-64
2023/09/21 06:28:01;;;;;;;1.20;1.10;;;21.00;67.50;;;;;;5054887;28;20210;-64
2023/09/21 06:30:26;;;;;;;1.23;1.05;;;21.00;67.50;;;;;;5055133;28;20178;-63
2023/09/21 06:32:55;;;;;;;1.23;1.05;;;21.00;67.50;;;;;;5053612;28;20203;-63
2023/09/21 06:35:21;;;;;;;2.80;1.23;;;21.10;67.50;;;;;;5054767;28;20206;-63
2023/09/21 06:37:48;;;;;;;1.35;1.17;;;21.00;67.50;;;;;;5055044;28;20239;-63
2023/09/21 06:40:13;;;;;;;1.27;1.17;;;21.10;67.50;;;;;;5054108;28;20186;-63
2023/09/21 06:42:39;;;;;;;1.63;1.27;;;21.10;67.50;;;;;;5054731;28;20179;-63
2023/09/21 06:45:05;;;;;;;1.30;1.20;;;21.10;67.50;;;;;;5054188;28;20185;-63
2023/09/21 06:47:31;;;;;;;1.20;1.10;;;21.10;67.50;;;;;;5054176;28;20255;-63
2023/09/21 06:49:56;;;;;;;1.05;1.00;;;21.10;67.50;;;;;;5055075;28;20628;-63
2023/09/21 06:52:22;;;;;;;1.20;1.10;;;21.00;67.50;;;;;;5054600;28;20171;-63
2023/09/21 06:54:52;;;;;;;1.80;1.27;;;21.10;67.70;;;;;;5054107;28;20179;-62
2023/09/21 06:57:23;;;;;;;1.48;1.38;;;21.10;67.60;;;;;;5054264;28;20218;-62
2023/09/21 06:59:48;;;;;;;1.65;1.40;;;21.10;67.60;;;;;;5054177;28;20333;-62
2023/09/21 07:02:14;;;;;;;1.25;1.15;;;21.10;67.70;;;;;;5054456;28;20261;-62
2023/09/21 07:04:39;;;;;;;1.25;1.13;;;21.20;67.70;;;;;;5054675;28;20205;-63
2023/09/21 07:07:05;;;;;;;1.48;0.90;;;21.00;67.60;;;;;;5053640;28;20214;-63
2023/09/21 07:09:35;;;;;;;1.52;1.20;;;21.10;67.70;;;;;;5054388;28;20301;-63
2023/09/21 07:12:05;;;;;;;1.30;1.20;;;21.00;67.70;;;;;;5054035;28;20171;-62
2023/09/21 07:14:32;;;;;;;2.28;1.40;;;21.10;67.80;;;;;;5053692;28;20179;-63
2023/09/21 07:16:59;;;;;;;1.58;1.23;;;21.10;68.00;;;;;;5054231;28;20224;-63
2023/09/21 07:19:25;;;;;;;2.05;1.30;;;21.00;68.10;;;;;;5054312;28;20179;-63
2023/09/21 07:21:50;;;;;;;1.73;1.55;;;21.00;67.80;;;;;;5053593;28;20182;-64
2023/09/21 07:24:18;;;;;;;3.45;1.42;;;21.10;68.10;;;;;;5056897;28;20633;-64
2023/09/21 07:26:45;;;;;;;3.17;1.40;;;21.10;67.90;;;;;;5054358;28;20175;-64
2023/09/21 07:29:12;;;;;;;2.55;1.30;;;21.10;67.90;;;;;;5052984;28;20694;-64
2023/09/21 07:31:37;;;;;;;2.30;1.50;;;21.10;67.90;;;;;;5059804;28;20615;-64
2023/09/21 07:34:03;;;;;;;1.65;1.25;;;21.10;68.00;;;;;;5070494;28;20213;-64
2023/09/21 07:36:28;;;;;;;1.77;1.52;;;21.10;68.10;;;;;;5052090;28;20515;-63
2023/09/21 07:38:57;;;;;;;2.70;1.23;;;21.10;68.10;;;;;;5061980;28;20189;-64
2023/09/21 07:41:23;;;;;;;1.98;1.52;;;21.10;68.20;;;;;;5073704;28;20273;-62
2023/09/21 07:43:48;;;;;;;2.35;1.35;;;21.10;68.30;;;;;;5072748;28;20265;-64
2023/09/21 07:46:14;;;;;;;1.58;1.40;;;21.10;68.30;;;;;;5073437;28;20713;-64
2023/09/21 07:48:40;;;;;;;2.72;1.42;;;21.10;68.30;;;;;;5055024;28;20306;-63
2023/09/21 07:51:07;;;;;;;2.10;1.42;;;21.10;68.30;;;;;;5053127;28;20222;-64
2023/09/21 07:53:33;;;;;;;1.80;1.42;;;21.10;68.50;;;;;;5053437;28;20190;-62
2023/09/21 07:56:01;;;;;;;1.92;1.40;;;21.10;68.50;;;;;;5052447;28;20565;-63
2023/09/21 07:58:27;;;;;;;2.08;1.55;;;21.10;68.50;;;;;;5053617;28;20225;-63
2023/09/21 08:00:58;;;;;;;1.63;1.50;;;21.10;68.50;;;;;;5053280;28;20183;-63
2023/09/21 08:03:26;;;;;;;3.38;1.52;;;21.10;68.50;;;;;;5056134;28;20656;-63
2023/09/21 08:05:55;;;;;;;2.42;1.55;;;21.10;68.60;;;;;;5068881;28;20622;-65
2023/09/21 08:08:21;;;;;;;1.50;1.40;;;21.10;68.60;;;;;;5052779;28;20309;-64
2023/09/21 08:10:49;;;;;;;1.85;1.45;;;21.20;68.60;;;;;;5062144;28;20262;-64
2023/09/21 08:13:15;;;;;;;1.85;1.27;;;21.20;68.70;;;;;;5072440;28;20232;-64
2023/09/21 08:15:40;;;;;;;3.47;1.80;;;21.10;68.60;;;;;;5072277;28;20230;-64
2023/09/21 08:18:07;;;;;;;3.75;1.50;;;21.10;68.50;;;;;;5071931;28;20178;-64
2023/09/21 08:20:33;;;;;;;2.63;2.20;;;21.10;69.50;;;;;;5052626;28;20722;-66
2023/09/21 08:22:59;;;;;;;3.15;1.88;;;21.10;69.00;;;;;;5053587;28;20216;-64
2023/09/21 08:25:24;;;;;;;3.63;2.00;;;21.10;68.90;;;;;;5061990;28;20629;-65
2023/09/21 08:27:50;;;;;;;5.32;1.67;;;21.10;68.90;;;;;;5064098;28;20221;-65
2023/09/21 08:30:15;;;;;;;3.40;1.73;;;21.10;69.10;;;;;;5052538;28;20220;-69
2023/09/21 08:32:41;;;;;;;3.30;1.60;;;21.10;69.30;;;;;;5056492;28;20206;-66
2023/09/21 08:35:11;;;;;;;2.30;1.83;;;21.10;69.10;;;;;;5057050;28;20198;-65
2023/09/21 08:37:36;;;;;;;2.58;1.98;;;21.10;69.10;;;;;;5070399;28;20301;-65
2023/09/21 08:40:06;;;;;;;3.28;1.75;;;21.10;69.10;;;;;;5051642;28;20713;-66
2023/09/21 08:42:32;;;;;;;3.10;1.88;;;21.10;69.00;;;;;;5052420;28;20631;-65
2023/09/21 08:44:57;;;;;;;2.33;1.88;;;21.10;69.10;;;;;;5052006;28;20630;-66
2023/09/21 08:47:23;;;;;;;2.85;1.98;;;21.10;69.00;;;;;;5052472;28;20179;-66
2023/09/21 08:49:49;;;;;;;1.90;1.75;;;21.10;69.10;;;;;;5018422;28;20183;-66
2023/09/21 08:52:15;;;;;;;2.88;1.80;;;21.10;69.10;;;;;;5038659;28;20197;-65
2023/09/21 08:54:42;;;;;;;6.35;1.90;;;21.10;69.10;;;;;;5051973;28;20185;-64
2023/09/21 08:57:09;;;;;;;2.20;1.77;;;21.10;69.10;;;;;;5051536;28;20181;-63
2023/09/21 08:59:36;;;;;;;2.30;1.88;;;21.10;69.00;;;;;;5058719;28;20183;-64
2023/09/21 09:02:02;;;;;;;3.97;1.67;;;21.10;69.00;;;;;;5037912;28;20174;-63
2023/09/21 09:04:28;;;;;;;2.83;1.80;;;21.10;69.00;;;;;;5062632;28;20547;-63
2023/09/21 09:06:54;;;;;;;3.42;2.08;;;21.10;69.00;;;;;;5049364;28;20253;-63
2023/09/21 09:09:20;;;;;;;4.68;1.65;;;21.10;69.00;;;;;;5071145;28;20726;-63
2023/09/21 09:11:46;;;;;;;2.40;1.70;;;21.10;69.00;;;;;;5070113;28;20170;-63
2023/09/21 09:14:16;;;;;;;4.80;1.75;;;21.10;69.10;;;;;;5051412;28;20664;-63
2023/09/21 09:16:42;;;;;;;2.28;1.50;;;21.10;69.00;;;;;;5052388;28;20213;-63
2023/09/21 09:19:09;;;;;;;3.28;1.73;;;21.10;69.30;;;;;;5051995;28;20175;-64
2023/09/21 09:21:34;;;;;;;2.03;1.65;;;21.10;69.40;;;;;;5064618;28;20308;-63
2023/09/21 09:24:00;;;;;;;4.90;2.03;;;21.10;69.30;;;;;;5071902;28;20266;-63
2023/09/21 09:26:25;;;;;;;3.63;1.75;;;21.10;69.30;;;;;;5055013;28;20187;-64
2023/09/21 09:29:02;;;;;;;2.60;1.95;;;21.10;69.30;;;;;;5051451;28;20237;-64
2023/09/21 09:31:28;;;;;;;3.55;1.70;;;21.10;69.40;;;;;;5035603;28;20167;-63
2023/09/21 09:33:55;;;;;;;2.42;1.70;;;21.10;69.30;;;;;;5052073;28;20626;-64
2023/09/21 09:36:22;;;;;;;3.92;1.52;;;21.10;69.40;;;;;;5050849;28;20180;-64
2023/09/21 09:38:48;;;;;;;3.03;1.67;;;21.10;69.40;;;;;;5054263;28;20175;-65
2023/09/21 09:41:15;;;;;;;2.88;1.50;;;21.10;69.40;;;;;;5051271;28;20175;-64
2023/09/21 09:43:40;;;;;;;2.80;1.88;;;21.10;69.30;;;;;;5034677;28;20183;-65
2023/09/21 09:46:08;;;;;;;3.17;1.67;;;21.10;69.40;;;;;;5017129;28;20186;-63
2023/09/21 09:48:34;;;;;;;2.95;1.90;;;21.10;69.30;;;;;;5017747;28;20628;-64
2023/09/21 09:51:05;;;;;;;3.28;1.52;;;21.10;69.30;;;;;;5018074;28;20258;-64
2023/09/21 09:53:34;;;;;;;2.55;1.60;;;21.10;69.40;;;;;;5052016;28;20198;-64
2023/09/21 09:56:07;;;;;;;3.05;1.83;;;21.10;69.40;;;;;;5032969;28;20616;-64
2023/09/21 09:58:34;;;;;;;2.95;1.90;;;21.10;69.50;;;;;;5051225;28;20660;-64
2023/09/21 10:01:00;;;;;;;2.42;1.77;;;21.10;69.50;;;;;;5033931;28;20680;-64
2023/09/21 10:03:26;;;;;;;3.38;1.90;;;21.10;69.40;;;;;;5051295;28;20179;-63
2023/09/21 10:05:51;;;;;;;1.83;1.60;;;21.10;69.50;;;;;;5034341;28;20171;-64
2023/09/21 10:08:18;;;;;;;2.38;1.40;;;21.10;69.50;;;;;;5037360;28;20219;-64
2023/09/21 10:10:47;;;;;;;2.40;1.67;;;21.10;69.50;;;;;;5037224;28;20672;-64
2023/09/21 10:13:13;;;;;;;2.17;1.92;;;21.10;69.50;;;;;;5039619;28;20633;-64
2023/09/21 10:15:40;;;;;;;3.20;1.55;;;21.10;69.60;;;;;;5055396;28;20262;-64
2023/09/21 10:18:07;;;;;;;1.75;1.40;;;21.10;69.60;;;;;;5036616;28;20179;-64
2023/09/21 10:20:34;;;;;;;2.33;1.67;;;21.10;69.50;;;;;;5055247;28;20179;-65
2023/09/21 10:23:01;;;;;;;2.58;1.52;;;21.10;69.50;;;;;;5037369;28;20185;-64
2023/09/21 10:25:41;;;;;;;2.00;1.50;;;21.20;69.60;;;;;;5054555;28;20213;-65
2023/09/21 10:28:45;;;;;;;3.25;1.42;;;21.20;69.70;;;;;;5055164;28;20222;-64
2023/09/21 10:31:22;;;;;;;2.60;1.58;;;21.10;69.70;;;;;;4973193;28;20178;-65
2023/09/21 10:33:51;;;;;;;5.00;1.40;;;21.20;69.60;;;;;;4974484;28;20201;-65
2023/09/21 10:36:22;;;;;;;2.33;1.50;;;21.10;69.40;;;;;;5018986;28;20197;-66
2023/09/21 10:39:13;;;;;;;3.45;1.48;;;21.20;69.60;;;;;;5054517;28;20180;-65
2023/09/21 10:41:42;;;;;;;3.05;1.75;;;21.10;69.50;;;;;;5054940;28;20183;-64
2023/09/21 10:44:08;;;;;;;2.10;1.52;;;21.20;69.40;;;;;;5054645;28;20171;-64
2023/09/21 10:46:34;;;;;;;3.40;1.90;;;21.20;69.40;;;;;;5053881;28;20388;-64
2023/09/21 10:49:11;;;;;;;4.20;1.50;;;21.20;69.50;;;;;;5054806;28;20211;-65
2023/09/21 10:51:40;;;;;;;2.10;1.63;;;21.20;69.70;;;;;;5053907;28;20537;-63
2023/09/21 10:54:06;;;;;;;2.03;1.70;;;21.20;69.50;;;;;;5054708;28;20177;-63
2023/09/21 10:56:32;;;;;;;3.55;1.75;;;21.20;69.60;;;;;;5054808;28;20180;-63
2023/09/21 10:58:58;;;;;;;1.63;1.52;;;21.20;69.50;;;;;;5057751;28;20169;-63
2023/09/21 11:01:23;;;;;;;3.63;2.15;;;21.20;69.60;;;;;;5074387;28;20637;-63
2023/09/21 11:03:49;;;;;;;1.95;1.30;;;21.20;69.50;;;;;;5056862;28;20185;-64
2023/09/21 11:06:18;;;;;;;1.77;1.48;;;21.30;69.40;;;;;;5055785;28;20267;-63
2023/09/21 11:08:48;;;;;;;2.70;1.67;;;21.30;69.30;;;;;;5057441;28;20567;-63
2023/09/21 11:11:14;;;;;;;2.60;1.85;;;21.30;69.10;;;;;;5074218;28;20221;-63
2023/09/21 11:13:40;;;;;;;2.13;1.50;;;21.30;69.10;;;;;;5053500;28;20183;-63
2023/09/21 11:16:06;;;;;;;3.03;1.83;;;21.30;69.30;;;;;;5054349;28;20229;-63
2023/09/21 11:18:32;;;;;;;2.83;1.85;;;21.30;69.30;;;;;;5053750;28;20179;-63
2023/09/21 11:20:58;;;;;;;1.83;1.70;;;21.30;69.40;;;;;;5053259;28;20176;-64
2023/09/21 11:23:24;;;;;;;1.98;1.70;;;21.30;69.40;;;;;;5054193;28;20179;-63
2023/09/21 11:25:50;;;;;;;2.40;1.40;;;21.30;69.30;;;;;;5036664;28;20225;-64
2023/09/21 11:28:19;;;;;;;2.33;1.90;;;21.30;69.30;;;;;;5052996;28;20218;-64
2023/09/21 11:30:45;;;;;;;5.05;2.03;;;21.30;69.40;;;;;;5054240;28;20176;-64
2023/09/21 11:33:10;;;;;;;1.80;1.60;;;21.30;69.40;;;;;;5053882;28;20179;-64
2023/09/21 11:35:36;;;;;;;3.60;1.90;;;21.30;69.50;;;;;;5035343;28;20679;-63
2023/09/21 11:38:03;;;;;;;1.80;1.60;;;21.30;69.60;;;;;;5060240;28;20629;-63
2023/09/21 11:40:28;;;;;;;2.75;1.77;;;21.30;69.90;;;;;;5074018;28;20213;-63
2023/09/21 11:42:57;;;;;;;3.67;1.65;;;21.30;69.70;;;;;;5072866;28;20629;-64
2023/09/21 11:45:24;;;;;;;2.95;1.70;;;21.30;69.70;;;;;;5073813;28;20182;-63
2023/09/21 11:47:57;;;;;;;3.17;1.70;;;21.30;69.70;;;;;;5073142;28;20202;-63
2023/09/21 11:50:30;;;;;;;3.67;1.67;;;21.30;69.60;;;;;;5073773;28;20233;-63
2023/09/21 11:52:59;;;;;;;3.80;1.90;;;21.30;69.60;;;;;;5073698;28;20190;-64
2023/09/21 11:55:25;;;;;;;3.28;1.70;;;21.30;69.60;;;;;;5072687;28;20178;-63
2023/09/21 11:58:04;;;;;;;4.22;1.70;;;21.40;69.80;;;;;;5073685;28;20564;-63
2023/09/21 12:00:43;;;;;;;3.10;1.80;;;21.30;69.80;;;;;;5073536;28;20175;-63
2023/09/21 12:03:13;;;;;;;2.10;1.48;;;21.30;69.80;;;;;;5072476;28;20182;-63
2023/09/21 12:05:41;;;;;;;3.42;1.67;;;21.30;69.80;;;;;;5073243;28;20544;-64
2023/09/21 12:08:06;;;;;;;2.40;1.50;;;21.30;69.80;;;;;;5073266;28;20218;-64
2023/09/21 12:10:32;;;;;;;3.03;1.55;;;21.30;69.90;;;;;;5072788;28;20564;-63
2023/09/21 12:12:58;;;;;;;4.97;1.90;;;21.30;69.90;;;;;;5072907;28;20221;-63
2023/09/21 12:15:23;;;;;;;3.00;1.48;;;21.30;69.80;;;;;;5073194;28;20182;-64
2023/09/21 12:17:49;;;;;;;2.78;1.50;;;21.30;69.80;;;;;;5072499;28;20676;-63
2023/09/21 12:20:18;;;;;;;3.10;1.58;;;21.30;69.90;;;;;;5072729;28;20177;-63
2023/09/21 12:22:46;;;;;;;3.25;1.88;;;21.30;69.90;;;;;;5073287;28;20182;-64
2023/09/21 12:25:14;;;;;;;1.60;1.42;;;21.40;70.10;;;;;;5072311;28;20170;-64
2023/09/21 12:27:40;;;;;;;3.13;1.45;;;21.30;69.90;;;;;;5072883;28;20221;-64
2023/09/21 12:30:12;;;;;;;1.80;1.60;;;21.30;70.00;;;;;;5071105;28;20629;-64
2023/09/21 12:32:38;;;;;;;2.63;1.73;;;21.30;70.00;;;;;;5072743;28;20646;-63
2023/09/21 12:35:07;;;;;;;3.38;1.80;;;21.30;70.00;;;;;;5072605;28;20548;-63
2023/09/21 12:37:33;;;;;;;2.05;1.48;;;21.30;70.00;;;;;;5071742;28;20673;-63
2023/09/21 12:39:58;;;;;;;1.48;1.30;;;21.30;70.00;;;;;;5072783;28;20178;-64
2023/09/21 12:42:24;;;;;;;1.55;1.27;;;21.30;70.00;;;;;;5072637;28;20178;-63
2023/09/21 12:44:49;;;;;;;2.20;1.83;;;21.30;69.90;;;;;;5072319;28;20178;-63
2023/09/21 12:47:15;;;;;;;2.97;1.50;;;21.30;70.00;;;;;;5072425;28;20166;-63